Timeline UpdatesTrip UpdatesNews PostsPvt PostsTravel TipsAdmin PostsConv PostsFollowed PostsChat RequestsBlog PostsPNR Posts

Disclaimer
Search
 
 
Thu Jul 24, 2014 07:40:26 ISTHomeTrainsΣChainsAtlasPNRForumGalleryNewsFAQTripsMembersLoginFeedback
No Recent News for this Train
Other Trains in the News **new
Latest...
.
Thu Nov 14, 2013 (06:37PM)
⇐ Return Journey: Train# 19019

19020/Dehradun - Mumbai Bandra Terminus Express

Apr 15 2014 (1:35PM)
Change Departure Station:
Change Arrival Station:
Post a Train Travel TipPost a Train Travel Tip **new
Post a Comment/Question/Picture/VideoPost a Comment/Question/Picture/Video
Pantry/Catering
✕ NO Pantry Car
✓ Catering Avbl
Loco/Rake Reversals
SRE/Saharanpur Junction (6); LRJ/Laksar Junction (4);
RSA - Rake Sharing
Rake/Coach Composition
LOCO-SLR-HCPV-GEN-GEN-AB1-S1-S2-S3-S4-S5-S6-S7-S8-S9-SLR
Loco
GZB WAP-7 NZM-BDTS. ddn to nzm tkd wdp 3a. By Er...
Read more...
Ankit Shotra Bhagat Entry# 595554
News    PNR    Forum    Time-Table    Availability    Fare Chart    Map    Arr/Dep History    Trips    Gallery    ΣChains    X/O    Timeline    
Travel Time: 38h 45m    84 halts    Distance: 1612 km    Avg Speed: 41 km/hr
Type: Mail/Express
Zone: WR/Western
Departs @ 12:45 (Avg 11m late)
Platform# 3
SMTWTFS
Haridwar Junction/HW 
Arrives @ 03:30 +2 nights (Avg 4m late)
Platform# 5
SMTWTFS
Mumbai Borivali/BVI 

84 halts. 250 intermediate Stations between Haridwar Junction and Mumbai Borivali

Show ALL intermediate Stations  Show Old Time-Table

#CodeStation NameX/OArrivesAvgDepartsAvgHaltPFDay#KmSpeedElevZoneAddress
1DDNDehradun (4)  -10:35+021-51.741648mNRDehradun, Uttarakhand
2DWODoiwala  11:04+411:06+42m--1-31.839484mNRDehradun, Uttarakhand
3RWLRaiwala Junction (2)X  11:38+411:40+172m21-11.120361mNRRishikesh, Uttarakhand
4MOTCMotichur (2)X  12:00+812:02+102m11-4.521312mNRHaridwar, Uttarakhand
5HW»Haridwar Junction (9)»X  12:15+912:45+1130m310.030294mNRHaridwar, Uttarakhand
6JWPJwalapurX  12:53+1312:55+132m--14.021292mNRHaridwar, Uttarakhand
7LRJLaksar Junction (4)X14:00+414:25+525m--126.959238mNRLaksar, Uttarakhand
8RKRoorkee (3)X  14:43+714:45+92m3144.742264mNRRoorkee - 247667, Uttarakhand
9SRESaharanpur Junction (6)X15:35+216:05+030m4179.446276mNRSaharanpur, Uttar Pradesh
10DBDDeoband (2)  16:50+516:52+72m21113.651258mNRSaharanpur, Uttar Pradesh
11MOZMuzaffarnagar (3)X  17:20+617:22+212m21137.767247mNRMuzaffarNagar, Uttar Pradesh
12KATKhatauli (2)  17:42+2517:44+252m11159.873239mNRKhatauli, Uttar Pradesh
13MUTMeerut Cantt. (2)  18:08+3018:10+302m11188.910230mNRMeerut, Uttar Pradesh
14MTCMeerut City Junction (6)X18:35+1519:20+845m41193.283229mNRMeerut, Uttar Pradesh
15MDNRModinagar (2)X  19:34+1419:36+142m21212.767221mNRGhaziabad, Uttar Pradesh
16MUDMuradnagar (2)  19:45+1519:47+152m21222.847220mNRGhaziabad, Uttar Pradesh
17GZNNew Ghaziabad (2)X  20:02+620:04+62m21234.614213mNRGhaziabad, Uttar Pradesh
18GZBGhaziabad Junction (6)X  20:30+320:32+42m41240.545217mNRGhaziabad, Uttar Pradesh
19SBBSahibabad Junction (5)X  20:41+1020:43+102m--1247.230209mNRGhaziabad, Uttar Pradesh
20NZMDelhi Hazrat Nizamuddin (7)O21:15+1621:55+1240m11263.225209mNRNizamuddin East/Sarai KaleKhan Bus Terminal, Delhi NCT
21TKDTuglakabad (4)XO  22:18+1122:20+142m--1272.928213mNRNear Tughlakabad Metro Station, Delhi NCT
22FDBFaridabad (4)  22:44+822:46+112m31284.040206mNRold Faridabad, Haryana
23BVHBallabgarh (5)O  22:58+923:00+102m--1292.135203mNRFaridabad, Haryana
24PWLPalwal (8)X  23:36+023:38+22m--1313.285200mNRPalwal, Haryana
25KSVKosi Kalan (3)O  00:08+1800:10+192m22355.729189mNCRKosi Kalan, Uttar Pradesh
26MTJMathura Junction (10)X  01:35-201:45+110m32397.280179mNCRMathura, Uttar Pradesh
27BTEBharatpur Junction (5)  02:10+702:15+65m--2430.784174mWCRBharatpur, Rajasthan
28BXNBayana Junction (3)XO  02:45+902:47+112m--2472.774198mWCRBayana, Rajasthan
29FSPFateh SinghpuraO  03:03+1203:05+132m--2492.479223mWCRState Highway 1, Rajasthan
30HANHindaun City (2)  03:15+1603:17+182m--2505.568230mWCRKarauli, Rajasthan
31SMBJShri Mahabirji (3)O  03:26+1903:28+192m--2515.749240mWCRKarauli, Rajasthan
32GGCGangapur City (3)  04:10+604:20+710m--2549.864270mWCRGangapur, Rajasthan
33NNWNarayanpur Tatwara (2)X  04:36+804:38+82m--2566.884256mWCRSawai Madhopur, Rajasthan
34MLZMalarnaX  04:50+1004:52+112m--2583.565236mWCRSawai Madhopur, Rajasthan
35SWMSawai Madhopur Junction (4)XO  05:20+1005:25+105m--2613.795266mWCRSawai Madhopur, Rajasthan
36IDGIndargarh Sumerganj Mandi (2)X  05:48+1605:50+182m--2650.082247mWCRIndargarh, Rajasthan
37LKELakheri (3)  05:58+2006:00+202m--2661.074228mWCRBundi, Rajasthan
38KPTNKeshorai PatanX  06:38+2006:40+232m--2708.160243mWCRSH 33, Rajasthan
39GQLGurla  06:48+2706:50+302m--2716.08251mWCRSH 33, Rajasthan
40KOTAKota Junction (5)X07:30+807:50+1320m22721.451256mWCRKota, Rajasthan
41DKNTDakaniya Talav (2)  08:01+2008:03+222m22730.885278mWCRKota, Rajasthan
42DARADaraX  08:30+2608:32+272m--2768.955354mWCRDara, Rajasthan
43MKXMorak (2)X  08:48+2708:50+272m--2783.642337mWCRMorak, Rajasthan
44RMARamganj Mandi Junction (3)  09:03+2509:05+282m--2792.757358mWCRRamganj Mandi, Rajasthan
45JHWJhalawar Road (3)  09:18+2609:20+262m--2805.155361mWCRJhalawar City, Rajasthan
46BWMBhawani Mandi (3)X  09:38+2309:40+292m--2821.576384mWCRBhawani Mandi, Madhya Pradesh
47GOHGaroth (2)X  09:58+3010:00+302m12844.226441mWCRMadhya Pradesh 458880, Madhya Pradesh
48SGZShamgarh (3)X  10:25+1710:30+215m--2855.067463mWCRMandsaur, Madhya Pradesh
49SVASuwasra (2)  10:42+2410:44+252m--2868.566450mWCRSuwasra, Madhya Pradesh
50CMUChau Mahla (3)  10:58+2611:00+272m12883.835426mWCRJhalawar, Rajasthan
51THURThuriaX  11:24+1611:26+172m--2898.021430mWCRMDR 45, Madhya Pradesh
52VMAVikramgarh Alot (2)X  11:48+611:50+122m12905.661443mWCRKota Division, Madhya Pradesh
53LNRLuni Richha  12:03+1112:05+112m--2918.928471mWCRAlote, Madhya Pradesh
54MEPMahidpur Road  12:28+012:30+32m--2929.529493mWCRGogapur, Madhya Pradesh
55NADNagda Junction (4)  13:05+113:15+310m--2946.675468mWRNagda, Madhya Pradesh
56KUHKhachrod (2)  13:26+913:28+92m--2960.457497mWRUjjain, Madhya Pradesh
57RNHRunkheraX  13:39+713:41+72m--2970.963478mWRUjjain, Madhya Pradesh
58BODBangrodX  13:48+813:50+72m--2978.224484mWRRatlam, Madhya Pradesh
59RTMRatlam Junction (7)X  14:15+614:35+1120m42988.077495mWRRatlam, Madhya Pradesh
60RTIRaoti (2)  14:56+2114:58+222m--21015.071409mWRState Highway 39A, Madhya Pradesh
61BOGBhairongarh (2)  15:08+2315:10+232m--21026.851374mWRBhairongarh Railway Station, Madhya Pradesh
62BMIBamnia (2)  15:17+2515:19+242m--21032.842392mWRBamnia, Madhya Pradesh
63AGRAmargarh (2)  15:25+2415:27+232m--21036.957410mWRSH 39A, Madhya Pradesh
64PCNPanch Pipila (2)  15:37+2315:39+222m--21046.484369mWRSH 39A, Madhya Pradesh
65THDRThandla Road (2)  15:49+2515:51+252m--21060.360317mWRJhabua, Madhya Pradesh
66MGNMeghnagar (3)  15:59+2516:01+262m--21068.373317mWRJhabua, Madhya Pradesh
67ANASAnas (2)  16:13+2616:15+262m--21082.979288mWRMadhya Pradesh 389154 ?, Madhya Pradesh
68BIOBordi (2)  16:21+2816:23+272m--21090.853289mWRNational Highway 59, Gujarat
69DHDDahod (3)  16:35+2916:40+305m--21101.576313mWRDahod, Gujarat
70LMKLimkheda  17:06+3417:08+332m--21134.468205mWRLimkheda, Gujarat
71PPDPiplod Junction  17:15+3417:17+332m--21142.379209mWRPiplod, Gujarat
72SATSant Road (2)X  17:26+3417:28+332m221154.220169mWROrwara, Gujarat
73GDAGodhra Junction (3)X  18:30+718:35+95m1021174.665122mWRGodhra, Gujarat
74KRSAKharsaliya (2)  18:45+1218:47+122m--21185.485107mWRPanchmahal, Gujarat
75DRLDerolX  18:56+1318:58+132m121198.16881mWRKalol, Gujarat
76CPNChampaner Road JunctionX  19:09+1419:11+142m--21210.67578mWRPanchmahal, Gujarat
77SMLASamlaya Junction (3)X  19:20+1319:22+132m--21221.84867mWRVadodara, Gujarat
78BRCVadodara Junction (7)  19:55+2020:05+2210m321248.48936mWRVadodara 390005, Gujarat
79MYGMiyagam Karjan (2)  20:25+2820:27+272m--21278.37229mWRKarjan, Gujarat
80BHBharuch Junction (5)  21:01+2821:03+272m421319.06219mWRBharuch, Gujarat
81AKVAnkleshwar Junction (4)X  21:12+2821:14+282m221328.37419mWRAnkleshwar, Gujarat
82KSBKosamba Junction (3)X21:29+3021:31+252m--21346.83230mWRKosamba, Gujarat
83STSurat (4)X  22:30+1422:38+148m221378.27119mWRSurat 395001, Gujarat
84NVSNavsari (3)  23:03+2223:05+222m--21407.87914mWRNavsari, Gujarat
85BIMBilimora Junction (4)X  23:21+2923:23+292m--21429.03611mWRBilimora, Gujarat
86BLValsad (3)  23:53+2223:55+272m321446.93815mWRValsad, Gujarat
87VAPIVapi (3)X  00:36+1400:38+162m--31473.25727mWRVapi, Gujarat
88PLGPalghar (3)  02:04+1602:06+192m--31554.73719mWRPalghar, Maharashtra
89VRVirar (8)  02:56+602:58+82m--31585.8486mWRThane, Maharashtra
90BVI•Mumbai Borivali (8)•  03:30+403:32+72m531611.72319mWRMumbai - 400092, Maharashtra
91BDTSMumbai Bandra Terminus (5)  04:20+2-131630.4-4mWRMumbai 400050, Maharashtra
Scroll to Top
Scroll to Bottom